sensor_id;sensor_type;location;lat;lon;timestamp;temperature;humidity
49238;DHT22;35069;47.906;1.892;2022-10-26T00:02:18;16.70;99.90
49238;DHT22;35069;47.906;1.892;2022-10-26T00:04:44;16.60;99.90
49238;DHT22;35069;47.906;1.892;2022-10-26T00:07:10;16.60;99.90
49238;DHT22;35069;47.906;1.892;2022-10-26T00:09:35;16.60;99.90
49238;DHT22;35069;47.906;1.892;2022-10-26T00:12:02;16.60;99.90
49238;DHT22;35069;47.906;1.892;2022-10-26T00:14:27;16.60;99.90
49238;DHT22;35069;47.906;1.892;2022-10-26T00:16:53;16.50;99.90
49238;DHT22;35069;47.906;1.892;2022-10-26T00:19:19;16.50;99.90
49238;DHT22;35069;47.906;1.892;2022-10-26T00:21:45;16.50;99.90
49238;DHT22;35069;47.906;1.892;2022-10-26T00:24:11;16.50;99.90
49238;DHT22;35069;47.906;1.892;2022-10-26T00:26:37;16.50;99.90
49238;DHT22;35069;47.906;1.892;2022-10-26T00:29:05;16.50;99.90
49238;DHT22;35069;47.906;1.892;2022-10-26T00:31:31;16.50;99.90
49238;DHT22;35069;47.906;1.892;2022-10-26T00:33:57;16.50;99.90
49238;DHT22;35069;47.906;1.892;2022-10-26T00:36:24;16.50;99.90
49238;DHT22;35069;47.906;1.892;2022-10-26T00:38:52;16.50;99.90
49238;DHT22;35069;47.906;1.892;2022-10-26T00:41:20;16.50;99.90
49238;DHT22;35069;47.906;1.892;2022-10-26T00:43:47;16.50;99.90
49238;DHT22;35069;47.906;1.892;2022-10-26T00:46:20;16.50;99.90
49238;DHT22;35069;47.906;1.892;2022-10-26T00:48:54;16.50;99.90
49238;DHT22;35069;47.906;1.892;2022-10-26T00:51:31;16.60;99.90
49238;DHT22;35069;47.906;1.892;2022-10-26T00:54:00;16.60;99.90
49238;DHT22;35069;47.906;1.892;2022-10-26T00:56:28;16.50;99.90
49238;DHT22;35069;47.906;1.892;2022-10-26T00:58:55;16.50;99.90
49238;DHT22;35069;47.906;1.892;2022-10-26T01:01:24;16.60;99.90
49238;DHT22;35069;47.906;1.892;2022-10-26T01:03:49;16.60;99.90
49238;DHT22;35069;47.906;1.892;2022-10-26T01:06:15;16.60;99.90
49238;DHT22;35069;47.906;1.892;2022-10-26T01:08:42;16.60;99.90
49238;DHT22;35069;47.906;1.892;2022-10-26T01:11:08;16.60;99.90
49238;DHT22;35069;47.906;1.892;2022-10-26T01:13:35;16.70;99.90
49238;DHT22;35069;47.906;1.892;2022-10-26T01:36:07;16.60;99.90
49238;DHT22;35069;47.906;1.892;2022-10-26T01:38:51;16.60;99.90
49238;DHT22;35069;47.906;1.892;2022-10-26T01:41:33;16.60;99.90
49238;DHT22;35069;47.906;1.892;2022-10-26T01:44:32;16.60;99.90
49238;DHT22;35069;47.906;1.892;2022-10-26T01:47:00;16.60;99.90
49238;DHT22;35069;47.906;1.892;2022-10-26T01:49:30;16.50;99.90
49238;DHT22;35069;47.906;1.892;2022-10-26T01:51:57;16.50;99.90
49238;DHT22;35069;47.906;1.892;2022-10-26T01:54:23;16.50;99.90
49238;DHT22;35069;47.906;1.892;2022-10-26T01:56:52;16.40;99.90
49238;DHT22;35069;47.906;1.892;2022-10-26T01:59:21;16.40;99.90
49238;DHT22;35069;47.906;1.892;2022-10-26T02:09:47;16.30;99.90
49238;DHT22;35069;47.906;1.892;2022-10-26T02:15:38;16.30;99.90
49238;DHT22;35069;47.906;1.892;2022-10-26T02:20:53;16.30;99.90
49238;DHT22;35069;47.906;1.892;2022-10-26T02:23:22;16.30;99.90
49238;DHT22;35069;47.906;1.892;2022-10-26T02:25:52;16.30;99.90
49238;DHT22;35069;47.906;1.892;2022-10-26T02:28:23;16.30;99.90
49238;DHT22;35069;47.906;1.892;2022-10-26T02:30:51;16.30;99.90
49238;DHT22;35069;47.906;1.892;2022-10-26T02:33:19;16.20;99.90
49238;DHT22;35069;47.906;1.892;2022-10-26T02:35:49;16.20;99.90
49238;DHT22;35069;47.906;1.892;2022-10-26T02:38:16;16.10;99.90
49238;DHT22;35069;47.906;1.892;2022-10-26T02:40:44;16.10;99.90
49238;DHT22;35069;47.906;1.892;2022-10-26T02:43:13;16.00;99.90
49238;DHT22;35069;47.906;1.892;2022-10-26T02:45:46;16.10;99.90
49238;DHT22;35069;47.906;1.892;2022-10-26T02:48:14;16.00;99.90
49238;DHT22;35069;47.906;1.892;2022-10-26T02:50:52;16.00;99.90
49238;DHT22;35069;47.906;1.892;2022-10-26T02:53:31;16.00;99.90
49238;DHT22;35069;47.906;1.892;2022-10-26T02:56:03;16.00;99.90
49238;DHT22;35069;47.906;1.892;2022-10-26T02:58:36;16.00;99.90
49238;DHT22;35069;47.906;1.892;2022-10-26T03:01:02;16.00;99.90
49238;DHT22;35069;47.906;1.892;2022-10-26T03:03:28;16.00;99.90
49238;DHT22;35069;47.906;1.892;2022-10-26T03:05:54;16.00;99.90
49238;DHT22;35069;47.906;1.892;2022-10-26T03:08:19;15.90;99.90
49238;DHT22;35069;47.906;1.892;2022-10-26T03:10:45;15.90;99.90
49238;DHT22;35069;47.906;1.892;2022-10-26T03:13:12;15.90;99.90
49238;DHT22;35069;47.906;1.892;2022-10-26T03:15:38;15.90;99.90
49238;DHT22;35069;47.906;1.892;2022-10-26T03:18:04;15.90;99.90
49238;DHT22;35069;47.906;1.892;2022-10-26T03:20:31;15.90;99.90
49238;DHT22;35069;47.906;1.892;2022-10-26T03:22:56;15.90;99.90
49238;DHT22;35069;47.906;1.892;2022-10-26T03:25:25;15.90;99.90
49238;DHT22;35069;47.906;1.892;2022-10-26T03:27:59;15.90;99.90
49238;DHT22;35069;47.906;1.892;2022-10-26T03:30:25;15.90;99.90
49238;DHT22;35069;47.906;1.892;2022-10-26T03:32:51;15.80;99.90
49238;DHT22;35069;47.906;1.892;2022-10-26T03:35:17;15.80;99.90
49238;DHT22;35069;47.906;1.892;2022-10-26T03:37:43;15.80;99.90
49238;DHT22;35069;47.906;1.892;2022-10-26T03:40:09;15.80;99.90
49238;DHT22;35069;47.906;1.892;2022-10-26T03:42:37;15.80;99.90
49238;DHT22;35069;47.906;1.892;2022-10-26T03:45:04;15.80;99.90
49238;DHT22;35069;47.906;1.892;2022-10-26T03:47:30;15.80;99.90
49238;DHT22;35069;47.906;1.892;2022-10-26T03:49:56;15.80;99.90
49238;DHT22;35069;47.906;1.892;2022-10-26T03:52:21;15.70;99.90
49238;DHT22;35069;47.906;1.892;2022-10-26T03:54:49;15.70;99.90
49238;DHT22;35069;47.906;1.892;2022-10-26T03:57:15;15.70;99.90
49238;DHT22;35069;47.906;1.892;2022-10-26T03:59:41;15.70;99.90
49238;DHT22;35069;47.906;1.892;2022-10-26T04:02:06;15.60;99.90
49238;DHT22;35069;47.906;1.892;2022-10-26T04:04:32;15.60;99.90
49238;DHT22;35069;47.906;1.892;2022-10-26T04:06:57;15.60;99.90
49238;DHT22;35069;47.906;1.892;2022-10-26T04:09:23;15.60;99.90
49238;DHT22;35069;47.906;1.892;2022-10-26T04:11:49;15.60;99.90
49238;DHT22;35069;47.906;1.892;2022-10-26T04:14:14;15.60;99.90
49238;DHT22;35069;47.906;1.892;2022-10-26T04:16:40;15.60;99.90
49238;DHT22;35069;47.906;1.892;2022-10-26T04:19:06;15.60;99.90
49238;DHT22;35069;47.906;1.892;2022-10-26T04:21:31;15.60;99.90
49238;DHT22;35069;47.906;1.892;2022-10-26T04:23:57;15.50;99.90
49238;DHT22;35069;47.906;1.892;2022-10-26T04:26:23;15.50;99.90
49238;DHT22;35069;47.906;1.892;2022-10-26T04:28:49;15.50;99.90
49238;DHT22;35069;47.906;1.892;2022-10-26T04:31:15;15.50;99.90
49238;DHT22;35069;47.906;1.892;2022-10-26T04:33:40;15.50;99.90
49238;DHT22;35069;47.906;1.892;2022-10-26T04:36:06;15.50;99.90
49238;DHT22;35069;47.906;1.892;2022-10-26T04:38:32;15.50;99.90
49238;DHT22;35069;47.906;1.892;2022-10-26T04:40:58;15.40;99.90
49238;DHT22;35069;47.906;1.892;2022-10-26T04:43:23;15.40;99.90
49238;DHT22;35069;47.906;1.892;2022-10-26T04:45:49;15.40;99.90
49238;DHT22;35069;47.906;1.892;2022-10-26T04:48:14;15.40;99.90
49238;DHT22;35069;47.906;1.892;2022-10-26T04:50:40;15.40;99.90
49238;DHT22;35069;47.906;1.892;2022-10-26T04:53:07;15.40;99.90
49238;DHT22;35069;47.906;1.892;2022-10-26T04:55:33;15.40;99.90
49238;DHT22;35069;47.906;1.892;2022-10-26T04:57:59;15.30;99.90
49238;DHT22;35069;47.906;1.892;2022-10-26T05:00:25;15.30;99.90
49238;DHT22;35069;47.906;1.892;2022-10-26T05:02:51;15.40;99.90
49238;DHT22;35069;47.906;1.892;2022-10-26T05:05:17;15.30;99.90
49238;DHT22;35069;47.906;1.892;2022-10-26T05:07:42;15.30;99.90
49238;DHT22;35069;47.906;1.892;2022-10-26T05:10:08;15.30;99.90
49238;DHT22;35069;47.906;1.892;2022-10-26T05:12:34;15.30;99.90
49238;DHT22;35069;47.906;1.892;2022-10-26T05:14:59;15.30;99.90
49238;DHT22;35069;47.906;1.892;2022-10-26T05:17:25;15.30;99.90
49238;DHT22;35069;47.906;1.892;2022-10-26T05:19:51;15.30;99.90
49238;DHT22;35069;47.906;1.892;2022-10-26T05:22:23;15.30;99.90
49238;DHT22;35069;47.906;1.892;2022-10-26T05:24:49;15.30;99.90
49238;DHT22;35069;47.906;1.892;2022-10-26T05:27:14;15.30;99.90
49238;DHT22;35069;47.906;1.892;2022-10-26T05:29:40;15.30;99.90
49238;DHT22;35069;47.906;1.892;2022-10-26T05:32:06;15.30;99.90
49238;DHT22;35069;47.906;1.892;2022-10-26T05:34:31;15.30;99.90
49238;DHT22;35069;47.906;1.892;2022-10-26T05:36:57;15.30;99.90
49238;DHT22;35069;47.906;1.892;2022-10-26T05:39:22;15.30;99.90
49238;DHT22;35069;47.906;1.892;2022-10-26T05:41:48;15.30;99.90
49238;DHT22;35069;47.906;1.892;2022-10-26T05:44:14;15.30;99.90
49238;DHT22;35069;47.906;1.892;2022-10-26T05:46:39;15.20;99.90
49238;DHT22;35069;47.906;1.892;2022-10-26T05:49:05;15.20;99.90
49238;DHT22;35069;47.906;1.892;2022-10-26T05:51:33;15.20;99.90
49238;DHT22;35069;47.906;1.892;2022-10-26T05:54:01;15.20;99.90
49238;DHT22;35069;47.906;1.892;2022-10-26T05:56:34;15.20;99.90
49238;DHT22;35069;47.906;1.892;2022-10-26T05:59:01;15.10;99.90
49238;DHT22;35069;47.906;1.892;2022-10-26T06:04:14;15.10;99.90
49238;DHT22;35069;47.906;1.892;2022-10-26T06:06:45;15.10;99.90
49238;DHT22;35069;47.906;1.892;2022-10-26T06:09:12;15.00;99.90
49238;DHT22;35069;47.906;1.892;2022-10-26T06:11:38;15.00;99.90
49238;DHT22;35069;47.906;1.892;2022-10-26T06:14:04;15.00;99.90
49238;DHT22;35069;47.906;1.892;2022-10-26T06:22:16;14.90;99.90
49238;DHT22;35069;47.906;1.892;2022-10-26T06:24:52;15.00;99.90
49238;DHT22;35069;47.906;1.892;2022-10-26T06:30:30;14.90;99.90
49238;DHT22;35069;47.906;1.892;2022-10-26T06:32:49;14.90;99.90
49238;DHT22;35069;47.906;1.892;2022-10-26T06:35:35;14.90;99.90
49238;DHT22;35069;47.906;1.892;2022-10-26T06:38:06;14.90;99.90
49238;DHT22;35069;47.906;1.892;2022-10-26T06:40:35;14.90;99.90
49238;DHT22;35069;47.906;1.892;2022-10-26T06:43:02;14.90;99.90
49238;DHT22;35069;47.906;1.892;2022-10-26T06:45:28;15.00;99.90
49238;DHT22;35069;47.906;1.892;2022-10-26T06:47:59;15.00;99.90
49238;DHT22;35069;47.906;1.892;2022-10-26T06:50:46;15.00;99.90
49238;DHT22;35069;47.906;1.892;2022-10-26T06:53:33;15.10;99.90
49238;DHT22;35069;47.906;1.892;2022-10-26T06:56:00;15.40;99.90
49238;DHT22;35069;47.906;1.892;2022-10-26T06:58:32;15.60;99.90
49238;DHT22;35069;47.906;1.892;2022-10-26T07:00:59;15.80;99.90
49238;DHT22;35069;47.906;1.892;2022-10-26T07:03:25;15.90;99.90
49238;DHT22;35069;47.906;1.892;2022-10-26T07:05:50;16.20;99.90
49238;DHT22;35069;47.906;1.892;2022-10-26T07:08:16;16.30;99.90
49238;DHT22;35069;47.906;1.892;2022-10-26T07:10:42;16.40;99.90
49238;DHT22;35069;47.906;1.892;2022-10-26T07:13:09;16.50;99.90
49238;DHT22;35069;47.906;1.892;2022-10-26T07:15:36;16.60;99.90
49238;DHT22;35069;47.906;1.892;2022-10-26T07:18:06;16.80;99.90
49238;DHT22;35069;47.906;1.892;2022-10-26T07:20:37;17.00;99.90
49238;DHT22;35069;47.906;1.892;2022-10-26T07:23:03;17.00;99.90
49238;DHT22;35069;47.906;1.892;2022-10-26T07:25:31;17.00;99.90
49238;DHT22;35069;47.906;1.892;2022-10-26T07:27:58;17.00;99.90
49238;DHT22;35069;47.906;1.892;2022-10-26T07:30:25;16.90;99.90
49238;DHT22;35069;47.906;1.892;2022-10-26T07:32:58;16.80;99.90
49238;DHT22;35069;47.906;1.892;2022-10-26T07:35:23;16.60;99.90
49238;DHT22;35069;47.906;1.892;2022-10-26T07:37:49;16.50;99.90
49238;DHT22;35069;47.906;1.892;2022-10-26T07:40:14;16.40;99.90
49238;DHT22;35069;47.906;1.892;2022-10-26T07:42:40;16.20;99.90
49238;DHT22;35069;47.906;1.892;2022-10-26T07:45:06;16.20;99.90
49238;DHT22;35069;47.906;1.892;2022-10-26T07:47:31;16.00;99.90
49238;DHT22;35069;47.906;1.892;2022-10-26T07:49:57;15.90;99.90
49238;DHT22;35069;47.906;1.892;2022-10-26T07:52:22;15.90;99.90
49238;DHT22;35069;47.906;1.892;2022-10-26T07:54:48;15.80;99.90
49238;DHT22;35069;47.906;1.892;2022-10-26T07:57:15;15.70;99.90
49238;DHT22;35069;47.906;1.892;2022-10-26T07:59:41;15.70;99.90
49238;DHT22;35069;47.906;1.892;2022-10-26T08:02:08;15.70;99.90
49238;DHT22;35069;47.906;1.892;2022-10-26T08:04:34;15.70;99.90
49238;DHT22;35069;47.906;1.892;2022-10-26T08:07:00;15.70;99.90
49238;DHT22;35069;47.906;1.892;2022-10-26T08:09:25;15.70;99.90
49238;DHT22;35069;47.906;1.892;2022-10-26T08:11:51;15.80;99.90
49238;DHT22;35069;47.906;1.892;2022-10-26T08:14:16;15.80;99.90
49238;DHT22;35069;47.906;1.892;2022-10-26T08:16:42;15.80;99.90
49238;DHT22;35069;47.906;1.892;2022-10-26T08:19:07;15.80;99.90
49238;DHT22;35069;47.906;1.892;2022-10-26T08:21:33;15.80;99.90
49238;DHT22;35069;47.906;1.892;2022-10-26T08:23:59;15.80;99.90
49238;DHT22;35069;47.906;1.892;2022-10-26T08:26:24;15.80;99.90
49238;DHT22;35069;47.906;1.892;2022-10-26T08:28:50;15.90;99.90
49238;DHT22;35069;47.906;1.892;2022-10-26T08:31:15;15.90;99.90
49238;DHT22;35069;47.906;1.892;2022-10-26T08:33:41;15.90;99.90
49238;DHT22;35069;47.906;1.892;2022-10-26T08:36:07;16.00;99.90
49238;DHT22;35069;47.906;1.892;2022-10-26T08:38:32;16.10;99.90
49238;DHT22;35069;47.906;1.892;2022-10-26T08:40:58;16.10;99.90
49238;DHT22;35069;47.906;1.892;2022-10-26T08:43:32;16.20;99.90
49238;DHT22;35069;47.906;1.892;2022-10-26T08:46:40;16.30;99.90
49238;DHT22;35069;47.906;1.892;2022-10-26T08:49:02;16.30;99.90
49238;DHT22;35069;47.906;1.892;2022-10-26T08:51:31;16.40;99.90
49238;DHT22;35069;47.906;1.892;2022-10-26T08:57:21;16.60;99.90
49238;DHT22;35069;47.906;1.892;2022-10-26T09:00:10;16.70;99.90
49238;DHT22;35069;47.906;1.892;2022-10-26T09:02:36;16.70;99.90
49238;DHT22;35069;47.906;1.892;2022-10-26T09:05:02;16.80;99.90
49238;DHT22;35069;47.906;1.892;2022-10-26T09:07:47;16.80;99.90
49238;DHT22;35069;47.906;1.892;2022-10-26T09:10:38;16.90;99.90
49238;DHT22;35069;47.906;1.892;2022-10-26T09:18:31;17.30;99.90
49238;DHT22;35069;47.906;1.892;2022-10-26T09:26:14;17.80;99.90
49238;DHT22;35069;47.906;1.892;2022-10-26T09:28:44;18.10;99.90
49238;DHT22;35069;47.906;1.892;2022-10-26T09:31:15;18.50;99.90
49238;DHT22;35069;47.906;1.892;2022-10-26T09:33:41;18.80;99.90
49238;DHT22;35069;47.906;1.892;2022-10-26T09:36:18;19.10;99.90
49238;DHT22;35069;47.906;1.892;2022-10-26T09:41:41;20.30;99.90
49238;DHT22;35069;47.906;1.892;2022-10-26T09:44:36;20.80;99.90
49238;DHT22;35069;47.906;1.892;2022-10-26T09:49:45;21.70;99.90
49238;DHT22;35069;47.906;1.892;2022-10-26T09:52:15;22.00;99.90
49238;DHT22;35069;47.906;1.892;2022-10-26T09:54:41;22.60;99.90
49238;DHT22;35069;47.906;1.892;2022-10-26T09:57:13;23.20;99.90
49238;DHT22;35069;47.906;1.892;2022-10-26T09:59:40;24.00;99.90
49238;DHT22;35069;47.906;1.892;2022-10-26T10:02:34;24.70;99.90
49238;DHT22;35069;47.906;1.892;2022-10-26T10:05:00;25.40;97.70
49238;DHT22;35069;47.906;1.892;2022-10-26T10:07:26;26.50;95.80
49238;DHT22;35069;47.906;1.892;2022-10-26T10:10:26;27.70;93.00
49238;DHT22;35069;47.906;1.892;2022-10-26T10:12:52;27.80;86.70
49238;DHT22;35069;47.906;1.892;2022-10-26T10:15:23;27.90;86.70
49238;DHT22;35069;47.906;1.892;2022-10-26T10:17:53;27.50;84.80
49238;DHT22;35069;47.906;1.892;2022-10-26T10:20:32;27.80;82.80
49238;DHT22;35069;47.906;1.892;2022-10-26T10:22:59;27.90;79.20
49238;DHT22;35069;47.906;1.892;2022-10-26T10:25:38;27.70;84.70
49238;DHT22;35069;47.906;1.892;2022-10-26T10:28:21;27.90;84.00
49238;DHT22;35069;47.906;1.892;2022-10-26T10:33:32;26.90;87.40
49238;DHT22;35069;47.906;1.892;2022-10-26T10:35:59;26.40;85.30
49238;DHT22;35069;47.906;1.892;2022-10-26T10:38:25;26.00;90.00
49238;DHT22;35069;47.906;1.892;2022-10-26T10:40:54;25.80;90.40
49238;DHT22;35069;47.906;1.892;2022-10-26T10:43:21;25.40;89.80
49238;DHT22;35069;47.906;1.892;2022-10-26T10:45:49;25.20;90.20
49238;DHT22;35069;47.906;1.892;2022-10-26T10:48:18;25.10;90.20
49238;DHT22;35069;47.906;1.892;2022-10-26T10:51:05;24.90;90.20
49238;DHT22;35069;47.906;1.892;2022-10-26T10:53:46;24.80;88.90
49238;DHT22;35069;47.906;1.892;2022-10-26T10:59:29;24.80;90.40
49238;DHT22;35069;47.906;1.892;2022-10-26T11:02:37;24.50;87.40
49238;DHT22;35069;47.906;1.892;2022-10-26T11:07:50;24.60;90.50
49238;DHT22;35069;47.906;1.892;2022-10-26T11:10:18;24.80;90.80
49238;DHT22;35069;47.906;1.892;2022-10-26T11:12:50;24.90;91.00
49238;DHT22;35069;47.906;1.892;2022-10-26T11:15:25;25.00;91.00
49238;DHT22;35069;47.906;1.892;2022-10-26T11:18:07;25.20;90.60
49238;DHT22;35069;47.906;1.892;2022-10-26T11:20:40;25.10;90.40
49238;DHT22;35069;47.906;1.892;2022-10-26T11:23:08;25.20;90.00
49238;DHT22;35069;47.906;1.892;2022-10-26T11:25:52;25.10;88.90
49238;DHT22;35069;47.906;1.892;2022-10-26T11:31:19;25.70;88.00
49238;DHT22;35069;47.906;1.892;2022-10-26T11:34:11;26.50;85.30
49238;DHT22;35069;47.906;1.892;2022-10-26T11:36:39;27.00;82.50
49238;DHT22;35069;47.906;1.892;2022-10-26T11:39:09;27.70;81.00
49238;DHT22;35069;47.906;1.892;2022-10-26T11:41:50;28.50;78.50
49238;DHT22;35069;47.906;1.892;2022-10-26T11:44:22;29.80;72.10
49238;DHT22;35069;47.906;1.892;2022-10-26T11:46:55;30.60;71.40
49238;DHT22;35069;47.906;1.892;2022-10-26T11:49:48;33.80;64.10
49238;DHT22;35069;47.906;1.892;2022-10-26T11:55:11;40.10;52.90
49238;DHT22;35069;47.906;1.892;2022-10-26T11:57:37;40.20;45.70
49238;DHT22;35069;47.906;1.892;2022-10-26T12:02:28;40.70;46.60
49238;DHT22;35069;47.906;1.892;2022-10-26T12:07:31;41.20;44.30
49238;DHT22;35069;47.906;1.892;2022-10-26T12:09:59;42.00;43.70
49238;DHT22;35069;47.906;1.892;2022-10-26T12:13:08;43.10;42.60
49238;DHT22;35069;47.906;1.892;2022-10-26T12:18:48;43.50;37.90
49238;DHT22;35069;47.906;1.892;2022-10-26T12:21:15;43.70;40.00
49238;DHT22;35069;47.906;1.892;2022-10-26T12:24:00;42.30;39.40
49238;DHT22;35069;47.906;1.892;2022-10-26T12:34:00;30.50;49.60
49238;DHT22;35069;47.906;1.892;2022-10-26T12:39:38;27.20;55.60
49238;DHT22;35069;47.906;1.892;2022-10-26T12:44:37;25.10;59.50
49238;DHT22;35069;47.906;1.892;2022-10-26T12:47:04;24.60;61.70
49238;DHT22;35069;47.906;1.892;2022-10-26T12:52:33;23.50;65.80
49238;DHT22;35069;47.906;1.892;2022-10-26T12:58:02;23.00;67.40
49238;DHT22;35069;47.906;1.892;2022-10-26T13:00:31;22.80;68.10
49238;DHT22;35069;47.906;1.892;2022-10-26T13:06:16;22.50;71.50
49238;DHT22;35069;47.906;1.892;2022-10-26T13:08:50;22.40;73.50
49238;DHT22;35069;47.906;1.892;2022-10-26T13:11:29;22.30;72.60
49238;DHT22;35069;47.906;1.892;2022-10-26T13:14:01;22.20;73.80
49238;DHT22;35069;47.906;1.892;2022-10-26T13:16:28;22.10;75.00
49238;DHT22;35069;47.906;1.892;2022-10-26T13:18:55;22.00;75.60
49238;DHT22;35069;47.906;1.892;2022-10-26T13:21:22;22.00;76.50
49238;DHT22;35069;47.906;1.892;2022-10-26T13:26:27;21.90;77.50
49238;DHT22;35069;47.906;1.892;2022-10-26T13:29:00;21.90;77.60
49238;DHT22;35069;47.906;1.892;2022-10-26T13:33:56;21.90;78.50
49238;DHT22;35069;47.906;1.892;2022-10-26T13:36:40;21.80;78.90
49238;DHT22;35069;47.906;1.892;2022-10-26T13:39:15;21.80;79.20
49238;DHT22;35069;47.906;1.892;2022-10-26T13:41:46;21.70;79.70
49238;DHT22;35069;47.906;1.892;2022-10-26T13:44:24;21.70;80.00
49238;DHT22;35069;47.906;1.892;2022-10-26T13:46:55;21.70;80.60
49238;DHT22;35069;47.906;1.892;2022-10-26T13:49:40;21.70;81.00
49238;DHT22;35069;47.906;1.892;2022-10-26T13:52:18;21.70;81.30
49238;DHT22;35069;47.906;1.892;2022-10-26T13:54:53;21.70;82.00
49238;DHT22;35069;47.906;1.892;2022-10-26T13:57:41;21.70;82.00
49238;DHT22;35069;47.906;1.892;2022-10-26T14:00:18;21.70;82.20
49238;DHT22;35069;47.906;1.892;2022-10-26T14:02:44;21.70;82.70
49238;DHT22;35069;47.906;1.892;2022-10-26T14:05:12;21.60;82.80
49238;DHT22;35069;47.906;1.892;2022-10-26T14:07:51;21.70;83.30
49238;DHT22;35069;47.906;1.892;2022-10-26T14:12:50;21.60;83.70
49238;DHT22;35069;47.906;1.892;2022-10-26T14:15:21;21.60;83.90
49238;DHT22;35069;47.906;1.892;2022-10-26T14:17:49;21.60;84.00
49238;DHT22;35069;47.906;1.892;2022-10-26T14:20:21;21.60;84.40
49238;DHT22;35069;47.906;1.892;2022-10-26T14:22:48;21.60;84.60
49238;DHT22;35069;47.906;1.892;2022-10-26T14:25:32;21.60;84.70
49238;DHT22;35069;47.906;1.892;2022-10-26T14:27:57;21.60;84.80
49238;DHT22;35069;47.906;1.892;2022-10-26T14:30:26;21.60;85.00
49238;DHT22;35069;47.906;1.892;2022-10-26T14:32:52;21.60;85.20
49238;DHT22;35069;47.906;1.892;2022-10-26T14:35:32;21.60;84.90
49238;DHT22;35069;47.906;1.892;2022-10-26T14:38:11;21.60;85.20
49238;DHT22;35069;47.906;1.892;2022-10-26T14:40:39;21.60;85.10
49238;DHT22;35069;47.906;1.892;2022-10-26T14:43:05;21.60;85.00
49238;DHT22;35069;47.906;1.892;2022-10-26T14:45:33;21.60;85.00
49238;DHT22;35069;47.906;1.892;2022-10-26T14:48:01;21.60;85.00
49238;DHT22;35069;47.906;1.892;2022-10-26T14:50:28;21.60;85.10
49238;DHT22;35069;47.906;1.892;2022-10-26T14:53:16;21.60;85.10
49238;DHT22;35069;47.906;1.892;2022-10-26T14:55:50;21.60;85.10
49238;DHT22;35069;47.906;1.892;2022-10-26T14:58:28;21.60;85.50
49238;DHT22;35069;47.906;1.892;2022-10-26T15:03:39;21.60;85.40
49238;DHT22;35069;47.906;1.892;2022-10-26T15:08:56;21.70;85.60
49238;DHT22;35069;47.906;1.892;2022-10-26T15:11:26;21.70;85.90
49238;DHT22;35069;47.906;1.892;2022-10-26T15:13:53;21.70;85.90
49238;DHT22;35069;47.906;1.892;2022-10-26T15:16:26;21.70;86.00
49238;DHT22;35069;47.906;1.892;2022-10-26T15:18:58;21.60;86.20
49238;DHT22;35069;47.906;1.892;2022-10-26T15:21:30;21.60;86.30
49238;DHT22;35069;47.906;1.892;2022-10-26T15:23:58;21.60;86.10
49238;DHT22;35069;47.906;1.892;2022-10-26T15:26:24;21.60;86.20
49238;DHT22;35069;47.906;1.892;2022-10-26T15:28:50;21.50;86.30
49238;DHT22;35069;47.906;1.892;2022-10-26T15:36:30;21.50;85.70
49238;DHT22;35069;47.906;1.892;2022-10-26T15:38:57;21.50;85.90
49238;DHT22;35069;47.906;1.892;2022-10-26T15:41:32;21.40;85.70
49238;DHT22;35069;47.906;1.892;2022-10-26T15:44:02;21.40;85.70
49238;DHT22;35069;47.906;1.892;2022-10-26T15:46:32;21.40;86.00
49238;DHT22;35069;47.906;1.892;2022-10-26T15:49:00;21.30;86.00
49238;DHT22;35069;47.906;1.892;2022-10-26T15:51:26;21.30;86.10
49238;DHT22;35069;47.906;1.892;2022-10-26T15:53:58;21.30;86.30
49238;DHT22;35069;47.906;1.892;2022-10-26T15:56:26;21.30;86.40
49238;DHT22;35069;47.906;1.892;2022-10-26T15:58:53;21.20;86.50
49238;DHT22;35069;47.906;1.892;2022-10-26T16:01:21;21.20;86.70
49238;DHT22;35069;47.906;1.892;2022-10-26T16:03:48;21.20;86.90
49238;DHT22;35069;47.906;1.892;2022-10-26T16:06:33;21.10;87.10
49238;DHT22;35069;47.906;1.892;2022-10-26T16:09:01;21.10;87.60
49238;DHT22;35069;47.906;1.892;2022-10-26T16:11:28;21.10;87.60
49238;DHT22;35069;47.906;1.892;2022-10-26T16:13:53;21.10;88.00
49238;DHT22;35069;47.906;1.892;2022-10-26T16:16:19;21.10;88.20
49238;DHT22;35069;47.906;1.892;2022-10-26T16:18:45;21.00;88.40
49238;DHT22;35069;47.906;1.892;2022-10-26T16:21:15;21.00;88.50
49238;DHT22;35069;47.906;1.892;2022-10-26T16:23:44;21.00;88.80
49238;DHT22;35069;47.906;1.892;2022-10-26T16:26:09;20.90;89.00
49238;DHT22;35069;47.906;1.892;2022-10-26T16:28:36;20.80;89.40
49238;DHT22;35069;47.906;1.892;2022-10-26T16:31:04;20.80;89.80
49238;DHT22;35069;47.906;1.892;2022-10-26T16:33:29;20.70;90.00
49238;DHT22;35069;47.906;1.892;2022-10-26T16:35:58;20.70;90.30
49238;DHT22;35069;47.906;1.892;2022-10-26T16:38:25;20.70;90.50
49238;DHT22;35069;47.906;1.892;2022-10-26T16:41:05;20.60;90.70
49238;DHT22;35069;47.906;1.892;2022-10-26T16:43:32;20.60;90.90
49238;DHT22;35069;47.906;1.892;2022-10-26T16:45:58;20.50;91.00
49238;DHT22;35069;47.906;1.892;2022-10-26T16:48:24;20.50;91.10
49238;DHT22;35069;47.906;1.892;2022-10-26T16:50:50;20.40;91.20
49238;DHT22;35069;47.906;1.892;2022-10-26T16:53:16;20.40;91.40
49238;DHT22;35069;47.906;1.892;2022-10-26T16:55:42;20.40;91.60
49238;DHT22;35069;47.906;1.892;2022-10-26T16:58:08;20.30;91.70
49238;DHT22;35069;47.906;1.892;2022-10-26T17:00:35;20.30;91.90
49238;DHT22;35069;47.906;1.892;2022-10-26T17:03:01;20.30;92.10
49238;DHT22;35069;47.906;1.892;2022-10-26T17:05:28;20.20;92.20
49238;DHT22;35069;47.906;1.892;2022-10-26T17:07:54;20.20;92.50
49238;DHT22;35069;47.906;1.892;2022-10-26T17:10:20;20.20;92.60
49238;DHT22;35069;47.906;1.892;2022-10-26T17:12:46;20.20;92.80
49238;DHT22;35069;47.906;1.892;2022-10-26T17:15:12;20.10;92.90
49238;DHT22;35069;47.906;1.892;2022-10-26T17:17:37;20.10;93.10
49238;DHT22;35069;47.906;1.892;2022-10-26T17:20:03;20.20;93.20
49238;DHT22;35069;47.906;1.892;2022-10-26T17:22:29;20.10;93.30
49238;DHT22;35069;47.906;1.892;2022-10-26T17:24:55;20.10;93.40
49238;DHT22;35069;47.906;1.892;2022-10-26T17:27:20;20.10;93.50
49238;DHT22;35069;47.906;1.892;2022-10-26T17:29:47;20.00;93.60
49238;DHT22;35069;47.906;1.892;2022-10-26T17:32:14;20.00;93.60
49238;DHT22;35069;47.906;1.892;2022-10-26T17:34:41;20.00;93.70
49238;DHT22;35069;47.906;1.892;2022-10-26T17:37:07;20.00;93.80
49238;DHT22;35069;47.906;1.892;2022-10-26T17:39:33;20.00;93.90
49238;DHT22;35069;47.906;1.892;2022-10-26T17:41:58;19.90;94.00
49238;DHT22;35069;47.906;1.892;2022-10-26T17:44:24;19.90;94.10
49238;DHT22;35069;47.906;1.892;2022-10-26T17:46:50;19.90;94.30
49238;DHT22;35069;47.906;1.892;2022-10-26T17:49:15;19.90;94.50
49238;DHT22;35069;47.906;1.892;2022-10-26T17:51:41;19.90;94.70
49238;DHT22;35069;47.906;1.892;2022-10-26T17:54:06;19.90;94.80